Time;durP1;ratioP1;P1;durP2;ratioP2;P2;SDS_P1;SDS_P2;PMS_P1;PMS_P2;Temp;Humidity;BMP_temperature;BMP_pressure;BME280_temperature;BME280_humidity;BME280_pressure;Samples;Min_cycle;Max_cycle;Signal;HPM_P1;HPM_P2
2023/03/12 00:02:15;;;;;;;0.85;0.40;;;;;;;18.74;54.43;99505.97;5094006;28;20110;-70
2023/03/12 00:04:41;;;;;;;0.82;0.40;;;;;;;18.73;54.28;99513.03;5093577;28;20034;-71
2023/03/12 00:07:07;;;;;;;0.60;0.40;;;;;;;18.73;54.40;99510.41;5093137;28;20557;-70
2023/03/12 00:09:37;;;;;;;1.48;0.57;;;;;;;18.74;54.21;99504.19;5093207;28;20020;-70
2023/03/12 00:12:04;;;;;;;1.45;0.70;;;;;;;18.72;54.48;99506.06;5093032;28;20132;-71
2023/03/12 00:14:29;;;;;;;1.05;0.70;;;;;;;18.72;54.36;99511.34;5092948;28;20028;-71
2023/03/12 00:16:55;;;;;;;1.88;0.57;;;;;;;18.72;54.35;99495.47;5093019;28;20032;-71
2023/03/12 00:19:20;;;;;;;0.70;0.40;;;;;;;18.73;54.14;99489.25;5092837;28;20016;-70
2023/03/12 00:21:46;;;;;;;1.35;0.60;;;;;;;18.73;54.08;99491.03;5093160;28;20020;-70
2023/03/12 00:24:11;;;;;;;1.13;0.50;;;;;;;18.72;54.14;99494.59;5092823;28;20024;-71
2023/03/12 00:26:37;;;;;;;1.10;0.60;;;;;;;18.71;54.24;99496.41;5092949;28;20068;-70
2023/03/12 00:29:02;;;;;;;1.15;0.50;;;;;;;18.71;54.15;99493.78;5092422;28;20069;-71
2023/03/12 00:31:31;;;;;;;1.00;0.63;;;;;;;18.71;54.34;99491.13;5092883;28;20104;-70
2023/03/12 00:33:58;;;;;;;1.60;0.68;;;;;;;18.73;54.26;99497.19;5092705;28;20492;-71
2023/03/12 00:36:26;;;;;;;1.08;0.50;;;;;;;18.71;54.49;99496.41;5092666;28;20024;-70
2023/03/12 00:38:52;;;;;;;1.17;0.50;;;;;;;18.72;54.47;99495.47;5092443;28;20032;-69
2023/03/12 00:41:18;;;;;;;0.80;0.32;;;;;;;18.72;54.12;99490.19;5090039;28;20031;-71
2023/03/12 00:43:46;;;;;;;1.02;0.55;;;;;;;18.71;54.21;99493.78;5092104;27;20024;-70
2023/03/12 00:46:11;;;;;;;0.95;0.57;;;;;;;18.71;54.29;99496.41;5091387;28;20051;-70
2023/03/12 00:48:37;;;;;;;1.02;0.52;;;;;;;18.72;54.36;99506.06;5092301;28;20489;-71
2023/03/12 00:51:02;;;;;;;1.17;0.50;;;;;;;18.71;54.36;99509.63;5091160;28;20446;-70
2023/03/12 00:53:28;;;;;;;1.75;0.75;;;;;;;18.72;54.16;99513.13;5092399;28;20115;-71
2023/03/12 00:55:53;;;;;;;1.15;0.50;;;;;;;18.71;54.01;99507.00;5092305;28;20150;-70
2023/03/12 00:58:19;;;;;;;1.35;0.50;;;;;;;18.70;54.50;99510.53;5091848;28;20020;-71
2023/03/12 01:00:44;;;;;;;0.75;0.40;;;;;;;18.71;54.29;99512.28;5092128;28;20095;-70
2023/03/12 01:03:10;;;;;;;0.75;0.45;;;;;;;18.71;54.29;99517.56;5092326;28;20380;-71
2023/03/12 01:05:36;;;;;;;0.80;0.40;;;;;;;18.71;54.31;99517.56;5092140;28;20039;-70
2023/03/12 01:08:04;;;;;;;0.90;0.40;;;;;;;18.68;54.30;99520.34;5092171;28;20020;-70
2023/03/12 01:10:30;;;;;;;1.17;0.50;;;;;;;18.69;54.23;99515.94;5092436;28;20028;-71
2023/03/12 01:12:55;;;;;;;0.80;0.47;;;;;;;18.68;54.54;99509.78;5091751;28;20032;-69
2023/03/12 01:15:21;;;;;;;1.17;0.60;;;;;;;18.70;54.42;99517.63;5092208;28;20024;-72
2023/03/12 01:17:46;;;;;;;1.30;0.50;;;;;;;18.70;54.42;99522.91;5091922;28;20027;-71
2023/03/12 01:20:12;;;;;;;1.98;0.40;;;;;;;18.70;54.17;99522.91;5090939;28;20035;-70
2023/03/12 01:22:38;;;;;;;1.40;0.50;;;;;;;18.68;54.45;99525.63;5092021;28;20024;-70
2023/03/12 01:25:04;;;;;;;0.88;0.50;;;;;;;18.68;54.48;99520.34;5092202;28;20076;-71
2023/03/12 01:27:29;;;;;;;0.68;0.40;;;;;;;18.69;54.24;99522.06;5091625;28;20024;-71
2023/03/12 01:29:55;;;;;;;1.17;0.43;;;;;;;18.69;54.18;99524.69;5092256;28;20399;-70
2023/03/12 01:32:21;;;;;;;0.70;0.60;;;;;;;18.67;54.31;99534.50;5092087;28;20773;-71
2023/03/12 01:34:46;;;;;;;0.30;0.30;;;;;;;18.70;54.46;99529.03;5092578;28;20373;-70
2023/03/12 01:37:12;;;;;;;1.40;0.60;;;;;;;18.67;54.21;99534.50;5092594;28;20020;-71
2023/03/12 01:39:37;;;;;;;0.63;0.30;;;;;;;18.68;54.55;99530.91;5092854;28;20395;-70
2023/03/12 01:42:03;;;;;;;0.70;0.40;;;;;;;18.69;54.46;99529.16;5092300;28;20109;-71
2023/03/12 01:44:29;;;;;;;1.73;0.35;;;;;;;18.69;54.21;99527.34;5092604;28;20051;-71
2023/03/12 01:46:54;;;;;;;0.98;0.50;;;;;;;18.69;54.45;99526.50;5092237;28;20016;-71
2023/03/12 01:49:33;;;;;;;0.50;0.40;;;;;;;18.70;54.19;99529.03;5091639;28;20510;-71
2023/03/12 01:51:59;;;;;;;0.47;0.40;;;;;;;18.68;54.23;99525.63;5092520;28;20047;-71
2023/03/12 01:54:27;;;;;;;1.33;0.43;;;;;;;18.68;54.34;99519.50;5095982;28;20473;-69
2023/03/12 01:56:55;;;;;;;0.90;0.30;;;;;;;18.67;54.52;99515.13;5095121;28;20042;-70
2023/03/12 01:59:27;;;;;;;1.35;0.45;;;;;;;18.69;54.09;99516.75;5095598;28;20028;-70
2023/03/12 02:01:52;;;;;;;1.15;0.50;;;;;;;18.67;54.46;99518.66;5095621;28;20116;-71
2023/03/12 02:04:21;;;;;;;0.88;0.30;;;;;;;18.68;54.34;99524.78;5095786;28;20028;-70
2023/03/12 02:07:04;;;;;;;0.45;0.30;;;;;;;18.67;54.61;99523.06;5094208;28;20388;-69
2023/03/12 02:09:32;;;;;;;0.85;0.38;;;;;;;18.67;54.26;99518.66;5095001;28;20028;-70
2023/03/12 02:11:58;;;;;;;0.90;0.43;;;;;;;18.68;54.33;99525.63;5095595;28;20086;-71
2023/03/12 02:14:23;;;;;;;0.85;0.47;;;;;;;18.68;54.30;99524.78;5095212;28;20461;-69
2023/03/12 02:16:50;;;;;;;0.55;0.30;;;;;;;18.67;54.26;99517.78;5095275;28;20039;-71
2023/03/12 02:19:33;;;;;;;0.52;0.35;;;;;;;18.67;54.42;99521.28;5095150;28;20387;-71
2023/03/12 02:21:58;;;;;;;0.65;0.43;;;;;;;18.67;54.50;99531.84;5094124;28;20035;-69
2023/03/12 02:24:39;;;;;;;0.47;0.30;;;;;;;18.67;54.27;99518.66;5094849;28;20027;-71
2023/03/12 02:27:06;;;;;;;0.93;0.40;;;;;;;18.67;54.48;99523.06;5095215;28;20395;-70
2023/03/12 02:29:34;;;;;;;1.58;0.63;;;;;;;18.67;54.52;99513.34;5095228;28;20102;-70
2023/03/12 02:32:03;;;;;;;0.57;0.30;;;;;;;18.67;54.32;99518.66;5095018;28;20024;-70
2023/03/12 02:34:28;;;;;;;0.45;0.30;;;;;;;18.66;54.48;99516.94;5095131;28;20081;-70
2023/03/12 02:36:54;;;;;;;1.55;0.50;;;;;;;18.65;54.55;99515.22;5095814;28;20388;-72
2023/03/12 02:39:19;;;;;;;1.10;0.45;;;;;;;18.66;54.22;99522.22;5094514;28;20032;-70
2023/03/12 02:41:52;;;;;;;0.95;0.30;;;;;;;18.66;54.13;99538.09;5095184;28;20027;-71
2023/03/12 02:44:20;;;;;;;0.50;0.20;;;;;;;18.65;54.48;99536.38;5094951;28;20388;-70
2023/03/12 02:46:48;;;;;;;0.80;0.40;;;;;;;18.65;54.60;99545.16;5094802;28;20032;-71
2023/03/12 02:49:17;;;;;;;0.68;0.22;;;;;;;18.65;54.28;99542.50;5094446;28;20032;-70
2023/03/12 02:51:43;;;;;;;0.70;0.30;;;;;;;18.66;54.52;99553.94;5095059;28;20024;-71
2023/03/12 02:54:09;;;;;;;0.82;0.35;;;;;;;18.65;54.33;99554.88;5093828;28;20024;-70
2023/03/12 02:56:35;;;;;;;0.80;0.40;;;;;;;18.65;54.40;99552.22;5094433;28;20065;-70
2023/03/12 02:59:01;;;;;;;1.13;0.30;;;;;;;18.65;54.61;99554.88;5094582;28;20032;-71
2023/03/12 03:01:26;;;;;;;1.08;0.57;;;;;;;18.64;54.66;99551.38;5093230;28;20024;-68
2023/03/12 03:03:53;;;;;;;0.80;0.30;;;;;;;18.65;54.33;99549.59;5093702;28;20393;-71
2023/03/12 03:06:19;;;;;;;0.50;0.30;;;;;;;18.65;54.41;99553.06;5094543;28;20031;-70
2023/03/12 03:08:45;;;;;;;0.50;0.30;;;;;;;18.64;54.44;99553.13;5092629;28;20539;-70
2023/03/12 03:11:11;;;;;;;0.68;0.38;;;;;;;18.64;54.42;99555.78;5094394;28;20032;-71
2023/03/12 03:13:37;;;;;;;0.47;0.30;;;;;;;18.66;54.45;99548.66;5094278;28;20047;-69
2023/03/12 03:16:03;;;;;;;0.65;0.30;;;;;;;18.63;54.43;99554.94;5092886;28;20059;-71
2023/03/12 03:18:30;;;;;;;0.52;0.32;;;;;;;18.65;54.26;99562.81;5093978;28;20078;-71
2023/03/12 03:21:05;;;;;;;0.75;0.30;;;;;;;18.64;54.56;99567.22;5094098;28;20028;-70
2023/03/12 03:23:32;;;;;;;0.57;0.30;;;;;;;18.63;54.37;99564.66;5093870;28;20020;-70
2023/03/12 03:25:58;;;;;;;0.45;0.28;;;;;;;18.63;54.34;99569.94;5093867;28;20028;-70
2023/03/12 03:28:25;;;;;;;0.63;0.40;;;;;;;18.63;54.67;99567.28;5094150;28;20422;-71
2023/03/12 03:30:53;;;;;;;0.73;0.17;;;;;;;18.63;54.23;99570.81;5094057;28;20043;-71
2023/03/12 03:33:18;;;;;;;0.50;0.30;;;;;;;18.63;54.56;99576.09;5093953;28;20579;-71
2023/03/12 03:35:44;;;;;;;0.35;0.20;;;;;;;18.62;54.52;99570.88;5094072;28;20053;-71
2023/03/12 03:38:09;;;;;;;0.95;0.40;;;;;;;18.64;54.30;99571.63;5093357;28;20558;-71
2023/03/12 03:40:34;;;;;;;0.43;0.22;;;;;;;18.63;54.42;99569.94;5093847;28;20032;-71
2023/03/12 03:43:00;;;;;;;0.40;0.28;;;;;;;18.63;54.42;99569.94;5093719;28;20016;-71
2023/03/12 03:45:25;;;;;;;0.52;0.30;;;;;;;18.63;54.58;99575.22;5093846;28;20387;-71
2023/03/12 03:47:51;;;;;;;0.38;0.20;;;;;;;18.61;54.76;99587.66;5093615;28;20016;-71
2023/03/12 03:50:16;;;;;;;0.30;0.20;;;;;;;18.60;54.78;99585.97;5093393;28;20040;-70
2023/03/12 03:52:41;;;;;;;0.25;0.20;;;;;;;18.63;54.36;99585.78;5091970;28;20028;-71
2023/03/12 03:55:07;;;;;;;0.13;0.13;;;;;;;18.62;54.68;99592.00;5093505;28;20028;-70
2023/03/12 03:57:33;;;;;;;0.10;0.10;;;;;;;18.61;54.64;99590.31;5093290;28;20028;-71
2023/03/12 03:59:59;;;;;;;0.45;0.20;;;;;;;18.56;55.11;99595.81;5093516;28;20506;-70
2023/03/12 04:02:25;;;;;;;0.65;0.20;;;;;;;18.55;55.06;99609.09;5093443;28;20028;-70
2023/03/12 04:04:51;;;;;;;1.00;0.20;;;;;;;18.57;54.79;99615.16;5093228;28;20484;-69
2023/03/12 04:07:18;;;;;;;1.25;0.40;;;;;;;18.54;55.18;99613.53;5093177;28;20024;-70
2023/03/12 04:09:43;;;;;;;0.85;0.40;;;;;;;18.57;55.15;99620.44;5093020;28;20016;-72
2023/03/12 04:12:09;;;;;;;1.17;0.40;;;;;;;18.58;54.53;99624.78;5093336;28;20399;-71
2023/03/12 04:14:38;;;;;;;1.67;0.47;;;;;;;18.56;54.95;99626.66;5093108;28;20031;-70
2023/03/12 04:17:04;;;;;;;1.63;0.50;;;;;;;18.54;54.81;99625.91;5093015;28;20495;-70
2023/03/12 04:19:29;;;;;;;1.20;0.40;;;;;;;18.53;55.12;99632.97;5092926;28;20028;-71
2023/03/12 04:21:54;;;;;;;1.13;0.35;;;;;;;18.54;55.05;99649.69;5092624;28;20024;-70
2023/03/12 04:24:20;;;;;;;1.55;0.50;;;;;;;18.55;54.90;99646.09;5092887;28;20055;-69
2023/03/12 04:26:45;;;;;;;2.78;0.65;;;;;;;18.57;54.92;99654.81;5093050;28;20035;-71
2023/03/12 04:29:11;;;;;;;1.73;0.40;;;;;;;18.57;54.79;99646.88;5092980;28;20031;-72
2023/03/12 04:31:36;;;;;;;1.23;0.40;;;;;;;18.57;54.84;99645.09;5092504;28;20020;-70
2023/03/12 04:34:01;;;;;;;2.60;0.50;;;;;;;18.56;54.68;99647.81;5092744;28;20032;-71
2023/03/12 04:36:27;;;;;;;2.00;0.50;;;;;;;18.58;54.53;99645.94;5092294;28;20028;-69
2023/03/12 04:38:53;;;;;;;1.92;0.60;;;;;;;18.55;54.79;99651.38;5092650;28;20028;-71
2023/03/12 04:41:18;;;;;;;2.45;0.63;;;;;;;18.55;54.85;99651.38;5092509;28;20052;-71
2023/03/12 04:43:44;;;;;;;1.48;0.38;;;;;;;18.52;54.78;99644.47;5092848;28;20024;-71
2023/03/12 04:46:09;;;;;;;2.15;0.60;;;;;;;18.52;54.97;99640.06;5092425;28;20074;-71
2023/03/12 04:48:35;;;;;;;1.10;0.47;;;;;;;18.53;54.72;99648.81;5092148;28;20114;-71
2023/03/12 04:51:03;;;;;;;1.15;0.55;;;;;;;18.56;54.67;99653.97;5092542;28;20625;-71
2023/03/12 04:53:28;;;;;;;2.15;0.50;;;;;;;18.56;54.67;99650.47;5092715;28;20058;-70
2023/03/12 04:55:54;;;;;;;1.40;0.47;;;;;;;18.56;54.50;99653.09;5091007;28;20491;-71
2023/03/12 04:58:20;;;;;;;1.35;0.50;;;;;;;18.57;54.51;99654.81;5091838;28;20035;-70
2023/03/12 05:00:47;;;;;;;1.35;0.47;;;;;;;18.56;54.63;99663.66;5092143;28;20047;-70
2023/03/12 05:03:12;;;;;;;2.17;0.47;;;;;;;18.55;54.49;99662.81;5091196;28;20085;-71
2023/03/12 05:05:38;;;;;;;2.22;0.38;;;;;;;18.57;54.55;99660.09;5090729;28;20024;-70
2023/03/12 05:08:04;;;;;;;1.40;0.45;;;;;;;18.58;54.61;99672.38;5092282;28;20396;-71
2023/03/12 05:10:29;;;;;;;1.80;0.40;;;;;;;18.57;54.20;99668.88;5092320;28;20059;-70
2023/03/12 05:12:55;;;;;;;2.70;0.70;;;;;;;18.57;54.28;99665.38;5092139;28;20056;-70
2023/03/12 05:15:20;;;;;;;1.27;0.47;;;;;;;18.58;54.25;99667.09;5092066;28;20028;-70
2023/03/12 05:17:45;;;;;;;1.70;0.57;;;;;;;18.57;54.42;99670.66;5091984;28;20061;-70
2023/03/12 05:20:12;;;;;;;2.65;0.45;;;;;;;18.56;54.28;99676.88;5091755;28;20028;-71
2023/03/12 05:22:38;;;;;;;1.60;0.30;;;;;;;18.54;54.30;99676.09;5092386;28;20080;-70
2023/03/12 05:25:04;;;;;;;1.60;0.60;;;;;;;18.55;54.36;99677.81;5092058;28;20028;-70
2023/03/12 05:27:30;;;;;;;0.70;0.20;;;;;;;18.55;54.30;99683.09;5093617;28;20032;-70
2023/03/12 05:29:55;;;;;;;1.67;0.30;;;;;;;18.56;54.31;99685.69;5076070;28;20033;-71
2023/03/12 05:32:21;;;;;;;1.25;0.30;;;;;;;18.55;54.49;99683.09;5076150;28;20117;-71
2023/03/12 05:34:46;;;;;;;1.23;0.40;;;;;;;18.55;54.46;99680.47;5075823;28;20473;-70
2023/03/12 05:37:11;;;;;;;1.98;0.50;;;;;;;18.55;54.34;99680.47;5075785;28;20037;-70
2023/03/12 05:39:37;;;;;;;1.73;0.57;;;;;;;18.55;54.57;99693.66;5093440;28;20452;-71
2023/03/12 05:42:03;;;;;;;1.42;0.40;;;;;;;18.54;54.35;99687.50;5094709;28;20035;-70
2023/03/12 05:44:29;;;;;;;2.17;0.50;;;;;;;18.54;54.64;99686.69;5096225;28;20043;-70
2023/03/12 05:46:54;;;;;;;1.48;0.60;;;;;;;18.54;54.33;99697.25;5095603;28;20415;-70
2023/03/12 05:49:20;;;;;;;2.00;0.55;;;;;;;18.55;54.29;99699.78;5094295;28;20488;-70
2023/03/12 05:51:49;;;;;;;1.75;0.60;;;;;;;18.54;54.44;99689.31;5095965;28;20042;-70
2023/03/12 05:54:17;;;;;;;2.15;0.63;;;;;;;18.52;54.18;99690.25;5096985;28;20019;-70
2023/03/12 05:56:42;;;;;;;2.60;0.82;;;;;;;18.54;54.49;99699.91;5095198;28;20020;-70
2023/03/12 05:59:09;;;;;;;2.30;0.50;;;;;;;18.54;54.19;99699.91;5096045;27;20184;-71
2023/03/12 06:01:35;;;;;;;1.80;0.50;;;;;;;18.54;54.35;99705.19;5095545;28;20028;-70
2023/03/12 06:04:00;;;;;;;2.42;0.68;;;;;;;18.53;54.42;99704.31;5096229;28;20074;-71
2023/03/12 06:06:26;;;;;;;2.80;0.43;;;;;;;18.52;54.36;99706.13;5095819;28;20091;-70
2023/03/12 06:08:51;;;;;;;2.58;0.60;;;;;;;18.53;54.50;99706.94;5095864;28;20487;-71
2023/03/12 06:11:17;;;;;;;2.17;0.50;;;;;;;18.55;54.40;99698.97;5095713;28;20102;-71
2023/03/12 06:13:43;;;;;;;2.45;0.77;;;;;;;18.54;54.29;99694.59;5095507;28;20510;-70
2023/03/12 06:16:19;;;;;;;2.13;0.50;;;;;;;18.52;54.28;99710.53;5095298;28;20024;-70
2023/03/12 06:18:45;;;;;;;2.50;0.68;;;;;;;18.52;54.20;99695.53;5095448;28;20430;-69
2023/03/12 06:21:16;;;;;;;1.35;0.35;;;;;;;18.52;54.22;99700.81;5095311;28;20032;-70
2023/03/12 06:23:43;;;;;;;3.33;0.60;;;;;;;18.51;54.30;99699.09;5095409;28;20110;-71
2023/03/12 06:26:10;;;;;;;1.42;0.60;;;;;;;18.51;54.21;99704.38;5095052;28;20035;-69
2023/03/12 06:28:36;;;;;;;2.53;0.52;;;;;;;18.52;54.20;99706.13;5095093;28;20107;-70
2023/03/12 06:31:03;;;;;;;2.78;0.73;;;;;;;18.51;54.16;99707.00;5095070;28;20117;-70
2023/03/12 06:33:29;;;;;;;2.03;0.45;;;;;;;18.51;54.55;99704.38;5095004;28;20499;-70
2023/03/12 06:36:00;;;;;;;2.53;0.70;;;;;;;18.52;54.09;99700.81;5094942;28;20073;-71
2023/03/12 06:38:25;;;;;;;3.55;0.65;;;;;;;18.50;54.47;99702.66;5093962;28;20500;-70
2023/03/12 06:41:06;;;;;;;2.78;0.60;;;;;;;18.52;54.09;99710.53;5094579;28;20030;-69
2023/03/12 06:43:33;;;;;;;2.78;0.70;;;;;;;18.51;54.20;99709.66;5074812;28;20024;-68
2023/03/12 06:46:00;;;;;;;2.10;0.40;;;;;;;18.50;54.17;99710.59;5079013;28;20024;-71
2023/03/12 06:48:27;;;;;;;2.90;0.60;;;;;;;18.49;54.40;99716.81;5094743;28;20028;-70
2023/03/12 06:50:52;;;;;;;1.75;0.50;;;;;;;18.50;54.16;99722.97;5094644;28;20456;-70
2023/03/12 06:53:20;;;;;;;1.83;0.68;;;;;;;18.49;54.21;99716.81;5094890;28;20047;-71
2023/03/12 06:55:45;;;;;;;1.52;0.35;;;;;;;18.49;54.27;99727.38;5094503;28;20361;-70
2023/03/12 06:58:11;;;;;;;1.10;0.40;;;;;;;18.48;54.29;99725.66;5093025;28;20034;-71
2023/03/12 07:00:39;;;;;;;4.13;0.82;;;;;;;18.48;54.11;99717.75;5094282;28;20492;-70
2023/03/12 07:03:05;;;;;;;1.45;0.40;;;;;;;18.49;54.34;99722.09;5094495;28;20023;-71
2023/03/12 07:05:30;;;;;;;1.42;0.43;;;;;;;18.48;54.31;99715.09;5094572;28;20023;-71
2023/03/12 07:07:56;;;;;;;2.15;0.70;;;;;;;18.48;54.18;99724.81;5094252;28;20031;-71
2023/03/12 07:10:22;;;;;;;2.15;0.50;;;;;;;18.49;54.46;99727.38;5094072;28;20016;-71
2023/03/12 07:12:47;;;;;;;2.22;0.70;;;;;;;18.50;54.24;99728.25;5094430;28;20048;-71
2023/03/12 07:15:13;;;;;;;2.35;0.65;;;;;;;18.48;54.41;99730.97;5093740;28;20491;-69
2023/03/12 07:17:39;;;;;;;1.75;0.57;;;;;;;18.47;54.10;99729.25;5094208;28;20024;-71
2023/03/12 07:20:05;;;;;;;2.55;0.77;;;;;;;18.48;54.26;99730.97;5094432;28;20365;-70
2023/03/12 07:22:30;;;;;;;2.33;0.70;;;;;;;18.48;54.18;99738.88;5094201;28;20137;-71
2023/03/12 07:24:56;;;;;;;1.50;0.52;;;;;;;18.48;54.31;99741.53;5094089;28;20487;-68
2023/03/12 07:27:21;;;;;;;1.92;0.60;;;;;;;18.48;54.10;99725.66;5093965;28;20078;-70
2023/03/12 07:29:47;;;;;;;2.17;0.52;;;;;;;18.47;54.31;99723.09;5093697;28;20016;-70
2023/03/12 07:32:12;;;;;;;2.00;0.70;;;;;;;18.48;54.31;99723.03;5094269;28;20136;-71
2023/03/12 07:34:37;;;;;;;2.05;0.60;;;;;;;18.47;54.29;99729.25;5093752;28;20020;-69
2023/03/12 07:37:03;;;;;;;2.22;0.52;;;;;;;18.47;54.42;99723.97;5093913;28;20019;-70
2023/03/12 07:39:29;;;;;;;1.70;0.57;;;;;;;18.47;54.19;99723.97;5093873;28;20031;-70
2023/03/12 07:41:55;;;;;;;2.30;0.90;;;;;;;18.48;54.41;99733.59;5093822;28;20028;-70
2023/03/12 07:44:20;;;;;;;2.17;0.40;;;;;;;18.45;54.35;99725.78;5092058;28;20023;-70
2023/03/12 07:46:46;;;;;;;3.00;0.77;;;;;;;18.47;54.48;99729.25;5093628;28;20632;-70
2023/03/12 07:49:11;;;;;;;2.88;0.63;;;;;;;18.46;54.57;99727.50;5093595;28;20031;-71
2023/03/12 07:51:37;;;;;;;1.95;0.73;;;;;;;18.46;54.32;99727.50;5093148;28;20074;-71
2023/03/12 07:54:02;;;;;;;1.85;0.73;;;;;;;18.47;54.55;99734.53;5093905;28;20035;-70
2023/03/12 07:56:28;;;;;;;1.33;0.50;;;;;;;18.47;54.22;99728.38;5093268;28;20271;-70
2023/03/12 07:58:53;;;;;;;1.95;0.60;;;;;;;18.46;54.35;99735.44;5093002;28;20031;-71
2023/03/12 08:01:19;;;;;;;1.42;0.40;;;;;;;18.47;54.38;99742.47;5093566;28;20020;-71
2023/03/12 08:03:45;;;;;;;2.58;0.52;;;;;;;18.46;54.21;99724.88;5093524;28;20365;-70
2023/03/12 08:06:10;;;;;;;2.83;0.85;;;;;;;18.47;54.33;99718.69;5093449;28;20099;-71
2023/03/12 08:08:40;;;;;;;1.05;0.63;;;;;;;18.46;54.26;99724.88;5093372;28;20028;-70
2023/03/12 08:11:06;;;;;;;1.92;0.60;;;;;;;18.47;54.47;99729.25;5093407;28;20027;-70
2023/03/12 08:13:32;;;;;;;2.28;0.60;;;;;;;18.44;54.53;99724.09;5091559;28;20024;-70
2023/03/12 08:15:57;;;;;;;2.63;0.65;;;;;;;18.45;54.46;99725.78;5092924;28;20081;-69
2023/03/12 08:18:23;;;;;;;1.67;0.70;;;;;;;18.46;54.64;99727.50;5093228;28;20048;-69
2023/03/12 08:20:50;;;;;;;1.63;0.50;;;;;;;18.45;54.34;99736.38;5092935;28;20499;-71
2023/03/12 08:23:16;;;;;;;2.55;0.80;;;;;;;18.43;54.61;99732.94;5093243;28;20495;-71
2023/03/12 08:25:47;;;;;;;1.83;0.60;;;;;;;18.46;54.60;99722.22;5092816;28;20124;-71
2023/03/12 08:28:14;;;;;;;2.15;0.50;;;;;;;18.46;54.32;99726.66;5092598;28;20073;-72
2023/03/12 08:30:45;;;;;;;2.05;0.60;;;;;;;18.46;54.26;99730.16;5092997;28;20061;-70
2023/03/12 08:33:10;;;;;;;1.63;0.52;;;;;;;18.45;54.44;99736.38;5091523;28;20028;-71
2023/03/12 08:35:36;;;;;;;2.35;0.60;;;;;;;18.47;54.53;99726.59;5092638;28;20119;-70
2023/03/12 08:38:01;;;;;;;1.40;0.60;;;;;;;18.46;54.43;99724.88;5092831;28;20028;-71
2023/03/12 08:40:27;;;;;;;2.08;0.63;;;;;;;18.47;54.42;99729.25;5092565;28;20028;-70
2023/03/12 08:42:52;;;;;;;2.95;0.77;;;;;;;18.48;54.51;99730.97;5092427;28;20016;-69
2023/03/12 08:45:18;;;;;;;1.88;0.55;;;;;;;18.48;54.14;99724.81;5092729;28;20024;-70
2023/03/12 08:47:43;;;;;;;3.42;1.27;;;;;;;18.48;54.30;99746.81;5092522;28;20044;-70
2023/03/12 08:50:11;;;;;;;1.92;0.63;;;;;;;18.47;54.35;99745.09;5092501;28;20048;-71
2023/03/12 08:52:36;;;;;;;3.20;0.70;;;;;;;18.47;54.32;99739.81;5092552;28;20106;-70
2023/03/12 08:55:02;;;;;;;1.42;0.60;;;;;;;18.48;54.44;99745.94;5092506;28;20040;-70
2023/03/12 08:57:28;;;;;;;1.38;0.57;;;;;;;18.47;54.39;99745.09;5092224;28;20031;-71
2023/03/12 08:59:53;;;;;;;1.20;0.50;;;;;;;18.49;54.15;99742.38;5092609;28;20035;-71
2023/03/12 09:02:18;;;;;;;2.97;1.00;;;;;;;18.48;54.47;99741.53;5092009;28;20406;-70
2023/03/12 09:04:48;;;;;;;1.95;0.70;;;;;;;18.49;54.50;99740.59;5092613;28;20502;-71
2023/03/12 09:07:13;;;;;;;1.85;0.40;;;;;;;18.49;54.27;99735.31;5092627;28;20028;-70
2023/03/12 09:09:39;;;;;;;1.85;0.68;;;;;;;18.48;54.16;99730.97;5092670;28;20028;-70
2023/03/12 09:12:05;;;;;;;1.70;0.50;;;;;;;18.47;54.63;99739.81;5092172;28;20381;-70
2023/03/12 09:14:30;;;;;;;3.63;1.15;;;;;;;18.46;54.31;99743.38;5092095;28;20446;-70
2023/03/12 09:16:57;;;;;;;1.50;0.60;;;;;;;18.48;54.24;99746.81;5092169;28;20042;-70
2023/03/12 09:19:22;;;;;;;3.22;1.02;;;;;;;18.48;54.58;99760.03;5092134;28;20028;-71
2023/03/12 09:21:47;;;;;;;1.13;0.35;;;;;;;18.49;54.31;99759.09;5092298;28;20039;-69
2023/03/12 09:24:13;;;;;;;1.73;0.60;;;;;;;18.47;54.39;99750.38;5092213;28;20503;-71
2023/03/12 09:26:38;;;;;;;1.40;0.60;;;;;;;18.48;54.30;99744.16;5091933;28;20032;-69
2023/03/12 09:29:04;;;;;;;2.03;0.70;;;;;;;18.47;54.27;99750.38;5092162;28;20024;-71
2023/03/12 09:31:29;;;;;;;1.80;0.70;;;;;;;18.47;54.40;99747.75;5091953;28;20059;-71
2023/03/12 09:33:55;;;;;;;1.92;0.60;;;;;;;18.48;54.32;99748.59;5091795;28;20020;-70
2023/03/12 09:36:20;;;;;;;1.67;0.50;;;;;;;18.49;54.32;99742.38;5092027;28;20054;-71
2023/03/12 09:38:46;;;;;;;1.52;0.50;;;;;;;18.48;54.48;99754.75;5092033;28;20020;-71
2023/03/12 09:41:22;;;;;;;2.15;0.75;;;;;;;18.48;54.24;99745.94;5091658;28;20020;-70
2023/03/12 09:44:00;;;;;;;0.73;0.30;;;;;;;18.46;54.36;99748.66;5090784;28;20050;-71
2023/03/12 09:46:34;;;;;;;1.00;0.50;;;;;;;18.47;54.61;99758.31;5091886;28;20031;-69
2023/03/12 09:49:03;;;;;;;0.85;0.40;;;;;;;18.47;54.33;99753.03;5092105;28;20024;-71
2023/03/12 09:51:40;;;;;;;2.22;0.50;;;;;;;18.47;54.70;99747.75;5091800;28;20047;-71
2023/03/12 09:54:06;;;;;;;;;;;;;;;18.49;54.50;99755.56;5090731;28;20028;-71
2023/03/12 09:56:33;;;;;;;1.90;0.40;;;;;;;18.48;54.59;99762.66;5091785;28;19912;-71
2023/03/12 09:58:59;;;;;;;1.42;0.60;;;;;;;18.49;54.54;99761.72;5091845;28;20129;-71
2023/03/12 10:01:36;;;;;;;1.63;0.73;;;;;;;18.49;54.64;99764.38;5091793;28;20043;-71
2023/03/12 10:04:08;;;;;;;1.00;0.50;;;;;;;18.49;54.52;99759.09;5091869;28;20048;-70
2023/03/12 10:06:54;;;;;;;2.35;0.50;;;;;;;18.49;54.51;99756.44;5091922;28;20020;-71
2023/03/12 10:09:36;;;;;;;1.55;0.63;;;;;;;18.48;54.59;99757.38;5091693;28;20028;-71
2023/03/12 10:12:16;;;;;;;0.82;0.40;;;;;;;18.49;54.40;99759.09;5092280;28;20029;-68
2023/03/12 10:14:54;;;;;;;1.15;0.55;;;;;;;18.50;54.60;99760.81;5095494;28;20058;-71
2023/03/12 10:17:39;;;;;;;1.65;0.50;;;;;;;18.49;54.79;99764.38;5096146;28;20058;-71
2023/03/12 10:20:19;;;;;;;1.60;0.40;;;;;;;18.50;54.92;99759.97;5094123;28;20130;-70
2023/03/12 10:22:47;;;;;;;1.42;0.50;;;;;;;18.51;54.63;99756.38;5095497;28;20134;-71
2023/03/12 10:25:23;;;;;;;1.48;0.43;;;;;;;18.52;54.44;99758.09;5095681;28;20023;-72
2023/03/12 10:27:49;;;;;;;0.85;0.43;;;;;;;18.50;54.80;99752.03;5095531;28;20568;-71
2023/03/12 10:30:23;;;;;;;1.38;0.55;;;;;;;18.51;54.86;99756.38;5095409;28;20023;-71
2023/03/12 10:32:52;;;;;;;1.33;0.60;;;;;;;18.52;54.80;99753.69;5095610;28;20047;-70
2023/03/12 10:35:21;;;;;;;1.70;0.47;;;;;;;18.52;54.88;99755.44;5095236;28;20108;-70
2023/03/12 10:37:57;;;;;;;1.17;0.40;;;;;;;18.51;54.84;99749.28;5095395;28;20035;-71
2023/03/12 10:40:33;;;;;;;0.88;0.40;;;;;;;18.51;54.93;99746.66;5094986;28;20511;-70
2023/03/12 10:42:59;;;;;;;2.27;0.77;;;;;;;18.51;54.90;99748.47;5095158;28;20060;-70
2023/03/12 10:45:44;;;;;;;1.40;0.60;;;;;;;18.52;54.73;99748.41;5094940;28;20024;-70
2023/03/12 10:48:17;;;;;;;0.70;0.40;;;;;;;18.52;54.79;99740.47;5094938;28;20027;-71
2023/03/12 10:50:42;;;;;;;1.55;0.47;;;;;;;18.52;54.83;99732.53;5094655;28;20385;-71
2023/03/12 10:53:28;;;;;;;1.33;0.50;;;;;;;18.53;55.13;99738.66;5094336;28;20054;-70
2023/03/12 10:55:57;;;;;;;1.38;0.32;;;;;;;18.55;55.06;99741.25;5094603;28;20034;-71
2023/03/12 10:58:23;;;;;;;0.75;0.38;;;;;;;18.54;55.08;99727.16;5094636;28;20716;-71
2023/03/12 11:01:00;;;;;;;2.20;0.40;;;;;;;18.54;54.83;99736.88;5094617;28;20127;-71
2023/03/12 11:03:26;;;;;;;2.17;0.55;;;;;;;18.54;54.67;99728.97;5094298;28;20498;-71
2023/03/12 11:05:55;;;;;;;0.90;0.40;;;;;;;18.56;54.96;99727.09;5094616;28;20476;-71
2023/03/12 11:08:28;;;;;;;1.35;0.45;;;;;;;18.56;54.58;99727.97;5093129;28;20418;-70
2023/03/12 11:10:55;;;;;;;0.95;0.50;;;;;;;18.56;54.68;99727.09;5094304;28;20020;-70
2023/03/12 11:13:31;;;;;;;2.42;0.80;;;;;;;18.58;54.57;99735.78;5094306;28;20492;-71
2023/03/12 11:16:24;;;;;;;1.20;0.63;;;;;;;18.58;54.53;99719.94;5094358;28;20031;-71
2023/03/12 11:18:56;;;;;;;0.93;0.45;;;;;;;18.59;54.68;99719.03;5092282;28;20032;-71
2023/03/12 11:21:21;;;;;;;1.33;0.60;;;;;;;18.59;54.38;99722.53;5093883;28;20103;-71
2023/03/12 11:23:55;;;;;;;0.95;0.50;;;;;;;18.60;54.66;99720.75;5094173;28;20055;-71
2023/03/12 11:26:23;;;;;;;0.90;0.40;;;;;;;18.62;54.31;99718.88;5093210;28;20480;-71
2023/03/12 11:29:00;;;;;;;2.00;0.50;;;;;;;18.61;54.36;99711.88;5094118;28;20039;-71
2023/03/12 11:31:30;;;;;;;1.38;0.57;;;;;;;18.63;54.35;99717.94;5094173;28;20024;-71
2023/03/12 11:34:02;;;;;;;1.42;0.60;;;;;;;18.63;54.43;99717.94;5094173;28;20028;-71
2023/03/12 11:37:03;;;;;;;1.38;0.50;;;;;;;18.64;54.23;99717.00;5093602;28;20016;-70